Terminal Aerodrome Forecast
Issued by NWS Charleston, WV

Current Version | Previous Version | Graphics & Text | Print | Product List | Glossary On
Versions: 1 2 3 4 5 6 7 8 9 10 11 12 13 14 15 16 17 18 19 20 21 22
000
FTUS41 KRLX 191739
TAFPKB
TAF
KPKB 191739Z 1918/2018 26009G16KT P6SM FEW035 SCT050
     FM191900 26010G18KT P6SM BKN050
     FM192200 26009KT P6SM VCSH BKN045
     FM200300 25005KT P6SM SCT050
     FM200600 24003KT P6SM SCT050
     FM201100 23002KT P6SM FEW250
     FM201500 26008KT P6SM SCT050=

USA.gov is the U.S. government's official web portal to all federal, state and local government web resources and services.